Language: 


Des rapports , des résumés tant et plus, au choix de chacun....


Données statistiques de la station
Quotidien Rapport Octobre 27, 2017 Unités:  Métrique    Anglais   les deux
« Précédent Jour
Suivant Jour »
Quotidien Hebdomadaire Mensuel Annuel Actuel
  Haut: Bas: Moyen:
Température: 16.9 °C 0.0 °C 12.9 °C
Pt de rosée: 14.0 °C 7.0 °C 11.2 °C
Humidité: 98 % 0 % 88 %
Vitesse du vent: 18.0 km/h 0.0 km/h 3.9 km/h
Rafales: 25.6 km/h - -
Vent:- - NW
Pression: 1034.1 hPa 0.0 hPa -
Précipitation: 0.3 mm    
Historical Graphs
 
 
Données statistiques pour Octobre 27, 2017
Heure Température Point de rosée Pression Vent Vitesse du vent Refales Humidité Pluie (taux horaire)
00:04 14.2 °C 14.0 °C 1023.9 hPa Calm   4.7 km/h 98 % 0.0 mm
00:09 14.2 °C 14.0 °C 1023.9 hPa Calm   1.8 km/h 98 % 0.0 mm
00:14 14.2 °C 14.0 °C 1023.9 hPa Calm   1.8 km/h 98 % 0.0 mm
00:19 14.1 °C 14.0 °C 1023.9 hPa Calm   1.8 km/h 98 % 0.0 mm
00:24 14.1 °C 14.0 °C 1023.9 hPa Calm     98 % 0.0 mm
00:29 14.1 °C 14.0 °C 1023.9 hPa Calm   5.5 km/h 98 % 0.0 mm
00:39 14.0 °C 14.0 °C 1023.9 hPa Calm   5.8 km/h 98 % 0.0 mm
00:44 14.0 °C 14.0 °C 1023.9 hPa Calm   5.0 km/h 98 % 0.0 mm
00:49 13.9 °C 14.0 °C 1023.9 hPa North 3.2 km/h 7.2 km/h 98 % 0.0 mm
00:54 13.9 °C 14.0 °C 1023.9 hPa Calm   7.2 km/h 98 % 0.0 mm
00:59 13.8 °C 14.0 °C 1023.9 hPa North 5.5 km/h 5.5 km/h 98 % 0.0 mm
01:04 13.8 °C 14.0 °C 1024.9 hPa NW 3.2 km/h 5.5 km/h 98 % 0.0 mm
01:09 13.8 °C 14.0 °C 1024.9 hPa Calm   5.5 km/h 98 % 0.0 mm
01:14 13.8 °C 14.0 °C 1024.9 hPa Calm   3.2 km/h 98 % 0.0 mm
01:19 13.8 °C 14.0 °C 1024.9 hPa North 4.0 km/h 5.8 km/h 98 % 0.0 mm
01:24 13.8 °C 14.0 °C 1024.9 hPa Calm   5.8 km/h 98 % 0.0 mm
01:29 13.8 °C 14.0 °C 1024.9 hPa Calm   5.5 km/h 98 % 0.0 mm
01:35 13.8 °C 14.0 °C 1024.9 hPa NNW 1.8 km/h 5.5 km/h 98 % 0.0 mm
01:40 13.8 °C 14.0 °C 1024.9 hPa Calm   6.4 km/h 98 % 0.0 mm
01:45 13.8 °C 14.0 °C 1024.9 hPa Calm   6.4 km/h 98 % 0.0 mm
01:50 13.8 °C 14.0 °C 1024.9 hPa WNW 1.4 km/h 5.5 km/h 98 % 0.0 mm
01:55 13.8 °C 14.0 °C 1024.9 hPa North 4.3 km/h 6.4 km/h 98 % 0.0 mm
02:00 13.8 °C 14.0 °C 1024.9 hPa Calm   6.4 km/h 98 % 0.0 mm
02:05 13.8 °C 14.0 °C 1024.9 hPa Calm   6.4 km/h 98 % 0.0 mm
02:10 13.8 °C 14.0 °C 1024.9 hPa Calm   6.4 km/h 98 % 0.0 mm
02:15 13.8 °C 14.0 °C 1024.9 hPa Calm   5.5 km/h 98 % 0.0 mm
02:20 13.8 °C 14.0 °C 1024.9 hPa Calm   5.5 km/h 98 % 0.0 mm
02:25 13.9 °C 14.0 °C 1024.9 hPa North 3.5 km/h 3.5 km/h 98 % 0.0 mm
02:30 13.9 °C 14.0 °C 1024.9 hPa Calm   3.5 km/h 98 % 0.0 mm
02:35 13.9 °C 14.0 °C 1024.9 hPa NNW 4.0 km/h 4.7 km/h 98 % 0.0 mm
02:40 13.9 °C 14.0 °C 1024.9 hPa NW 3.5 km/h 7.2 km/h 98 % 0.0 mm
02:45 13.8 °C 14.0 °C 1024.9 hPa NNW 6.1 km/h 9.7 km/h 98 % 0.0 mm
02:50 13.8 °C 14.0 °C 1024.9 hPa NNW 1.8 km/h 9.7 km/h 98 % 0.0 mm
02:55 13.8 °C 14.0 °C 1024.9 hPa North 4.3 km/h 6.1 km/h 98 % 0.0 mm
03:01 0.0 °C 14.0 °C 0.0 hPa Calm   6.1 km/h 0 % 0.0 mm
03:06 13.8 °C 14.0 °C 1024.9 hPa Calm   6.1 km/h 98 % 0.0 mm
03:11 13.8 °C 14.0 °C 1024.9 hPa Calm   3.5 km/h 98 % 0.0 mm
03:16 13.8 °C 14.0 °C 1024.9 hPa Calm   2.6 km/h 98 % 0.0 mm
03:21 13.8 °C 14.0 °C 1024.9 hPa NNW 4.7 km/h 9.0 km/h 98 % 0.0 mm
03:26 13.9 °C 14.0 °C 1024.9 hPa Calm   9.0 km/h 98 % 0.0 mm
03:31 13.9 °C 14.0 °C 1023.9 hPa NW 5.8 km/h 6.9 km/h 98 % 0.0 mm
03:37 13.9 °C 14.0 °C 1023.9 hPa WNW 5.0 km/h 9.3 km/h 98 % 0.0 mm
03:42 13.9 °C 14.0 °C 1023.9 hPa Calm   9.7 km/h 98 % 0.0 mm
03:47 13.9 °C 14.0 °C 1023.9 hPa North 4.3 km/h 9.7 km/h 98 % 0.0 mm
03:52 13.9 °C 14.0 °C 1023.9 hPa NNW 6.4 km/h 9.7 km/h 98 % 0.0 mm
03:57 13.8 °C 14.0 °C 1023.9 hPa West 6.1 km/h 9.3 km/h 98 % 0.0 mm
04:02 13.8 °C 14.0 °C 1024.9 hPa NW 6.9 km/h 9.3 km/h 98 % 0.0 mm
04:07 13.8 °C 14.0 °C 1024.9 hPa NNW 5.5 km/h 8.7 km/h 98 % 0.0 mm
04:12 13.7 °C 14.0 °C 1024.9 hPa Calm   10.5 km/h 98 % 0.0 mm
04:17 13.7 °C 14.0 °C 1024.9 hPa Calm   10.5 km/h 98 % 0.0 mm
04:22 13.7 °C 14.0 °C 1024.9 hPa NNW 4.0 km/h 6.4 km/h 98 % 0.0 mm
04:27 13.6 °C 14.0 °C 1024.9 hPa NNW 1.8 km/h 6.1 km/h 98 % 0.0 mm
04:32 13.5 °C 14.0 °C 1024.9 hPa North 1.8 km/h 7.6 km/h 98 % 0.0 mm
04:37 13.5 °C 14.0 °C 1024.9 hPa NNW 4.0 km/h 7.6 km/h 98 % 0.0 mm
04:42 13.4 °C 13.0 °C 1024.9 hPa NNW 3.2 km/h 6.4 km/h 98 % 0.0 mm
04:47 13.3 °C 13.0 °C 1023.9 hPa NNW 4.0 km/h 6.4 km/h 98 % 0.0 mm
04:52 13.2 °C 13.0 °C 1023.9 hPa Calm   6.4 km/h 98 % 0.0 mm
04:57 13.2 °C 13.0 °C 1023.9 hPa Calm   5.8 km/h 98 % 0.0 mm
05:02 13.1 °C 13.0 °C 1024.9 hPa Calm   5.8 km/h 98 % 0.0 mm
05:07 13.0 °C 13.0 °C 1024.9 hPa Calm   2.6 km/h 98 % 0.0 mm
05:12 13.0 °C 13.0 °C 1024.9 hPa Calm   2.6 km/h 98 % 0.0 mm
05:17 12.9 °C 13.0 °C 1024.9 hPa Calm   4.0 km/h 98 % 0.0 mm
05:22 12.9 °C 13.0 °C 1024.9 hPa NW 6.1 km/h 8.7 km/h 98 % 0.0 mm
05:28 12.9 °C 13.0 °C 1024.9 hPa North 3.5 km/h 8.7 km/h 98 % 0.0 mm
05:33 12.9 °C 13.0 °C 1024.9 hPa Calm   7.6 km/h 98 % 0.0 mm
05:38 12.9 °C 13.0 °C 1024.9 hPa Calm   8.7 km/h 98 % 0.0 mm
05:43 12.9 °C 13.0 °C 1024.9 hPa NNE 6.9 km/h 8.7 km/h 98 % 0.0 mm
05:48 12.9 °C 13.0 °C 1024.9 hPa North 2.1 km/h 8.7 km/h 98 % 0.0 mm
05:53 13.0 °C 13.0 °C 1024.9 hPa Calm   9.3 km/h 98 % 0.0 mm
05:58 13.0 °C 13.0 °C 1024.9 hPa North 1.4 km/h 9.3 km/h 98 % 0.0 mm
06:03 13.0 °C 13.0 °C 1024.9 hPa North 4.7 km/h 10.1 km/h 98 % 0.0 mm
06:08 13.0 °C 13.0 °C 1024.9 hPa North 10.5 km/h 11.6 km/h 98 % 0.0 mm
06:13 13.0 °C 13.0 °C 1024.9 hPa North 4.0 km/h 11.6 km/h 98 % 0.0 mm
06:18 12.9 °C 13.0 °C 1024.9 hPa North 1.8 km/h 11.1 km/h 98 % 0.0 mm
06:23 12.9 °C 13.0 °C 1024.9 hPa Calm   11.1 km/h 98 % 0.0 mm
06:28 12.9 °C 13.0 °C 1024.9 hPa Calm   10.1 km/h 98 % 0.0 mm
06:33 12.9 °C 13.0 °C 1026.0 hPa North 9.3 km/h 10.1 km/h 98 % 0.0 mm
06:38 12.9 °C 13.0 °C 1026.0 hPa Calm   9.3 km/h 98 % 0.0 mm
06:43 12.8 °C 13.0 °C 1026.0 hPa West 3.2 km/h 9.3 km/h 98 % 0.0 mm
06:48 12.8 °C 13.0 °C 1026.0 hPa North 10.5 km/h 10.5 km/h 98 % 0.0 mm
06:53 12.8 °C 13.0 °C 1026.0 hPa WNW 5.8 km/h 10.5 km/h 98 % 0.0 mm
06:58 12.8 °C 13.0 °C 1026.0 hPa Calm   10.5 km/h 98 % 0.0 mm
07:03 12.8 °C 13.0 °C 1026.0 hPa Calm   9.0 km/h 98 % 0.0 mm
07:08 12.8 °C 13.0 °C 1026.0 hPa Calm   7.9 km/h 98 % 0.0 mm
07:13 12.8 °C 13.0 °C 1026.0 hPa Calm   8.7 km/h 98 % 0.0 mm
07:18 12.8 °C 13.0 °C 1026.0 hPa NNW 4.7 km/h 9.7 km/h 98 % 0.0 mm
07:23 12.8 °C 13.0 °C 1026.0 hPa North 5.5 km/h 10.1 km/h 98 % 0.0 mm
07:28 12.7 °C 13.0 °C 1026.0 hPa NNW 6.1 km/h 10.1 km/h 98 % 0.0 mm
07:33 12.7 °C 13.0 °C 1027.0 hPa Calm   9.0 km/h 98 % 0.0 mm
07:38 12.7 °C 13.0 °C 1027.0 hPa NNW 3.5 km/h 9.7 km/h 98 % 0.0 mm
07:43 12.6 °C 13.0 °C 1027.0 hPa North 5.5 km/h 11.9 km/h 98 % 0.0 mm
07:48 12.5 °C 13.0 °C 1027.0 hPa North 1.4 km/h 11.9 km/h 98 % 0.0 mm
07:53 12.4 °C 13.0 °C 1027.0 hPa NNW 4.7 km/h 9.7 km/h 98 % 0.0 mm
07:58 12.3 °C 13.0 °C 1027.0 hPa NW 1.4 km/h 9.7 km/h 98 % 0.0 mm
08:03 12.1 °C 12.0 °C 1026.0 hPa NNW 1.8 km/h 10.1 km/h 98 % 0.0 mm
08:08 12.0 °C 12.0 °C 1026.0 hPa NNW 8.7 km/h 10.5 km/h 97 % 0.0 mm
08:13 11.9 °C 12.0 °C 1026.0 hPa NNW 6.9 km/h 10.5 km/h 97 % 0.0 mm
08:18 11.8 °C 11.0 °C 1027.0 hPa Calm   11.9 km/h 97 % 0.0 mm
08:23 11.6 °C 11.0 °C 1027.0 hPa Calm   11.9 km/h 97 % 0.0 mm
08:28 11.6 °C 11.0 °C 1027.0 hPa Calm   6.9 km/h 97 % 0.0 mm
08:33 11.5 °C 11.0 °C 1027.0 hPa NNW 6.9 km/h 6.9 km/h 97 % 0.0 mm
08:38 11.5 °C 11.0 °C 1027.0 hPa WNW 5.8 km/h 9.3 km/h 97 % 0.0 mm
08:43 11.5 °C 11.0 °C 1027.0 hPa NNW 4.0 km/h 10.5 km/h 97 % 0.0 mm
08:48 11.5 °C 11.0 °C 1028.0 hPa WNW 4.3 km/h 10.5 km/h 97 % 0.0 mm
08:53 11.4 °C 11.0 °C 1028.0 hPa Calm   9.3 km/h 97 % 0.0 mm
08:58 11.4 °C 11.0 °C 1028.0 hPa Calm   9.7 km/h 96 % 0.0 mm
09:03 11.4 °C 11.0 °C 1028.0 hPa NNW 3.5 km/h 9.7 km/h 96 % 0.0 mm
09:08 11.4 °C 11.0 °C 1028.0 hPa NW 4.0 km/h 9.3 km/h 96 % 0.0 mm
09:13 11.5 °C 11.0 °C 1028.0 hPa NNW 6.1 km/h 7.6 km/h 97 % 0.0 mm
09:18 11.6 °C 11.0 °C 1029.0 hPa NNW 6.1 km/h 7.9 km/h 96 % 0.0 mm
09:23 11.6 °C 11.0 °C 1029.0 hPa Calm   10.1 km/h 96 % 0.0 mm
09:28 11.7 °C 11.0 °C 1029.0 hPa NNW 6.9 km/h 10.1 km/h 96 % 0.0 mm
09:33 11.8 °C 11.0 °C 1029.0 hPa NNW 5.0 km/h 8.7 km/h 96 % 0.0 mm
09:38 11.9 °C 11.0 °C 1029.0 hPa NNW 2.1 km/h 11.9 km/h 95 % 0.0 mm
09:43 12.1 °C 12.0 °C 1029.0 hPa Calm   11.9 km/h 95 % 0.0 mm
09:48 12.3 °C 12.0 °C 1028.0 hPa Calm   8.7 km/h 95 % 0.0 mm
09:53 12.5 °C 13.0 °C 1028.0 hPa Calm   6.9 km/h 96 % 0.0 mm
09:58 12.7 °C 12.0 °C 1028.0 hPa NW 3.5 km/h 6.4 km/h 95 % 0.0 mm
10:03 12.5 °C 12.0 °C 1028.0 hPa WNW 6.4 km/h 11.9 km/h 94 % 0.0 mm
10:08 12.7 °C 12.0 °C 1028.0 hPa NNE 6.1 km/h 11.9 km/h 94 % 0.0 mm
10:13 12.9 °C 12.0 °C 1028.0 hPa WNW 5.8 km/h 11.9 km/h 94 % 0.0 mm
10:18 13.1 °C 12.0 °C 1029.0 hPa North 9.3 km/h 15.8 km/h 93 % 0.0 mm
10:23 13.3 °C 12.0 °C 1029.0 hPa NW 15.1 km/h 15.8 km/h 91 % 0.0 mm
10:28 13.4 °C 12.0 °C 1029.0 hPa NW 6.9 km/h 15.1 km/h 91 % 0.0 mm
10:33 13.5 °C 13.0 °C 1029.0 hPa NNW 7.9 km/h 13.7 km/h 91 % 0.0 mm
10:38 13.6 °C 12.0 °C 1029.0 hPa WNW 9.0 km/h 13.7 km/h 90 % 0.0 mm
10:43 13.8 °C 12.0 °C 1029.0 hPa NNW 4.0 km/h 13.0 km/h 90 % 0.0 mm
10:48 13.9 °C 12.0 °C 1030.0 hPa NNW 6.9 km/h 12.6 km/h 88 % 0.0 mm
10:54 14.0 °C 12.0 °C 1030.0 hPa NNE 10.1 km/h 13.7 km/h 88 % 0.0 mm
10:59 14.3 °C 13.0 °C 1030.0 hPa NNW 9.0 km/h 13.7 km/h 88 % 0.0 mm
11:04 14.3 °C 13.0 °C 1030.0 hPa North 2.6 km/h 12.2 km/h 87 % 0.0 mm
11:09 14.4 °C 13.0 °C 1030.0 hPa WNW 6.1 km/h 11.9 km/h 87 % 0.0 mm
11:14 14.7 °C 13.0 °C 1030.0 hPa North 4.7 km/h 12.2 km/h 86 % 0.0 mm
11:19 15.2 °C 13.0 °C 1030.0 hPa North 7.9 km/h 12.2 km/h 85 % 0.0 mm
11:24 14.7 °C 12.0 °C 1030.0 hPa NNW 9.3 km/h 15.4 km/h 83 % 0.0 mm
11:29 14.2 °C 12.0 °C 1030.0 hPa North 7.6 km/h 17.2 km/h 83 % 0.0 mm
11:34 14.0 °C 11.0 °C 1030.0 hPa NNW 8.7 km/h 17.2 km/h 83 % 0.0 mm
11:39 14.3 °C 12.0 °C 1030.0 hPa North 11.9 km/h 15.4 km/h 83 % 0.0 mm
11:44 14.5 °C 12.0 °C 1030.0 hPa NW 15.8 km/h 15.8 km/h 83 % 0.0 mm
11:49 14.7 °C 12.0 °C 1030.0 hPa NW 11.6 km/h 15.8 km/h 82 % 0.0 mm
11:54 14.8 °C 12.0 °C 1030.0 hPa NW 7.6 km/h 15.8 km/h 81 % 0.0 mm
11:59 14.9 °C 12.0 °C 1030.0 hPa NE 12.2 km/h 22.4 km/h 80 % 0.0 mm
12:04 15.1 °C 11.0 °C 1030.0 hPa NNW 18.0 km/h 22.4 km/h 78 % 0.0 mm
12:09 15.3 °C 11.0 °C 1030.0 hPa North 11.9 km/h 25.6 km/h 74 % 0.0 mm
12:15 15.5 °C 11.0 °C 1030.0 hPa NNW 14.0 km/h 23.3 km/h 74 % 0.0 mm
12:20 15.6 °C 11.0 °C 1032.1 hPa North 13.0 km/h 18.3 km/h 74 % 0.0 mm
12:25 15.5 °C 11.0 °C 1032.1 hPa NNE 13.7 km/h 18.3 km/h 72 % 0.0 mm
12:30 15.5 °C 11.0 °C 1032.1 hPa NNE 15.8 km/h 16.3 km/h 71 % 0.0 mm
12:35 15.7 °C 11.0 °C 1031.0 hPa North 12.6 km/h 15.8 km/h 72 % 0.0 mm
12:40 15.9 °C 11.0 °C 1031.0 hPa WNW 10.5 km/h 17.7 km/h 72 % 0.0 mm
12:45 15.7 °C 10.0 °C 1031.0 hPa North 13.0 km/h 17.7 km/h 68 % 0.0 mm
12:50 15.9 °C 10.0 °C 1030.0 hPa NNW 6.1 km/h 16.6 km/h 68 % 0.0 mm
12:55 15.7 °C 9.0 °C 1030.0 hPa North 4.0 km/h 16.6 km/h 66 % 0.0 mm
13:00 16.3 °C 10.0 °C 1030.0 hPa WNW 11.6 km/h 15.1 km/h 67 % 0.0 mm
13:05 16.0 °C 10.0 °C 1030.0 hPa North 8.7 km/h 16.3 km/h 67 % 0.0 mm
13:10 15.4 °C 9.0 °C 1030.0 hPa North 11.6 km/h 16.6 km/h 65 % 0.0 mm
13:15 15.3 °C 9.0 °C 1030.0 hPa North 9.0 km/h 16.6 km/h 67 % 0.0 mm
13:20 15.8 °C 10.0 °C 1031.0 hPa NNW 10.5 km/h 15.8 km/h 69 % 0.0 mm
13:25 16.0 °C 10.0 °C 1031.0 hPa NNE 9.0 km/h 14.8 km/h 68 % 0.0 mm
13:30 16.2 °C 10.0 °C 1031.0 hPa NNE 11.6 km/h 16.6 km/h 66 % 0.0 mm
13:35 16.2 °C 9.0 °C 1031.0 hPa North 5.8 km/h 17.7 km/h 63 % 0.0 mm
13:40 15.9 °C 9.0 °C 1031.0 hPa NNW 10.5 km/h 17.7 km/h 64 % 0.0 mm
13:45 15.6 °C 9.0 °C 1030.0 hPa NNW 12.6 km/h 16.6 km/h 65 % 0.0 mm
13:50 15.5 °C 10.0 °C 1030.0 hPa North 10.5 km/h 13.0 km/h 68 % 0.0 mm
13:55 15.7 °C 10.0 °C 1030.0 hPa NE 12.6 km/h 16.3 km/h 68 % 0.0 mm
14:00 16.2 °C 10.0 °C 1031.0 hPa North 10.1 km/h 16.3 km/h 67 % 0.0 mm
14:05 16.7 °C 10.0 °C 1031.0 hPa NNW 4.3 km/h 13.7 km/h 65 % 0.0 mm
14:10 16.2 °C 10.0 °C 1031.0 hPa North 2.6 km/h 12.6 km/h 65 % 0.0 mm
14:15 15.4 °C 9.0 °C 1031.0 hPa NNE 10.5 km/h 16.3 km/h 65 % 0.0 mm
14:20 14.9 °C 9.0 °C 1031.0 hPa NNE 6.4 km/h 16.3 km/h 66 % 0.0 mm
14:25 15.3 °C 9.0 °C 1031.0 hPa North 6.1 km/h 14.3 km/h 67 % 0.0 mm
14:30 16.1 °C 10.0 °C 1031.0 hPa NNW 5.5 km/h 11.6 km/h 67 % 0.0 mm
14:35 16.2 °C 9.0 °C 1031.0 hPa North 12.2 km/h 17.7 km/h 62 % 0.0 mm
14:40 16.5 °C 10.0 °C 1031.0 hPa North 9.3 km/h 17.7 km/h 64 % 0.0 mm
14:45 16.8 °C 9.0 °C 1030.0 hPa NNE 14.0 km/h 14.0 km/h 62 % 0.0 mm
14:50 16.3 °C 9.0 °C 1030.0 hPa North 13.7 km/h 15.8 km/h 61 % 0.0 mm
14:55 15.6 °C 8.0 °C 1030.0 hPa North 9.0 km/h 15.8 km/h 61 % 0.0 mm
15:00 15.4 °C 9.0 °C 1030.0 hPa North 9.0 km/h 13.7 km/h 63 % 0.0 mm
15:05 16.2 °C 10.0 °C 1030.0 hPa West 4.0 km/h 9.3 km/h 66 % 0.0 mm
15:11 16.9 °C 10.0 °C 1030.0 hPa WNW 8.7 km/h 13.7 km/h 63 % 0.0 mm
15:16 16.1 °C 8.0 °C 1030.0 hPa WNW 6.9 km/h 19.8 km/h 58 % 0.0 mm
15:21 15.9 °C 9.0 °C 1030.0 hPa WNW 2.6 km/h 19.8 km/h 62 % 0.0 mm
15:26 16.4 °C 9.0 °C 1030.0 hPa NNW 9.0 km/h 14.3 km/h 63 % 0.0 mm
15:31 16.5 °C 10.0 °C 1031.0 hPa NNW 12.2 km/h 14.3 km/h 63 % 0.0 mm
15:36 16.7 °C 9.0 °C 1031.0 hPa WNW 6.9 km/h 14.3 km/h 62 % 0.0 mm
15:41 16.7 °C 9.0 °C 1031.0 hPa North 14.0 km/h 15.4 km/h 61 % 0.0 mm
15:46 16.5 °C 9.0 °C 1031.0 hPa North 4.0 km/h 15.4 km/h 60 % 0.0 mm
15:51 16.0 °C 9.0 °C 1031.0 hPa North 6.1 km/h 14.0 km/h 62 % 0.0 mm
15:56 15.8 °C 9.0 °C 1031.0 hPa North 9.0 km/h 11.6 km/h 62 % 0.0 mm
16:01 15.6 °C 9.0 °C 1031.0 hPa WNW 5.5 km/h 10.5 km/h 65 % 0.0 mm
16:06 15.2 °C 9.0 °C 1031.0 hPa NNW 12.6 km/h 14.0 km/h 64 % 0.0 mm
16:11 14.9 °C 9.0 °C 1031.0 hPa NNW 5.8 km/h 16.6 km/h 67 % 0.0 mm
16:16 14.7 °C 9.0 °C 1031.0 hPa NW 6.1 km/h 16.6 km/h 67 % 0.0 mm
16:21 14.5 °C 9.0 °C 1031.0 hPa North 5.0 km/h 11.6 km/h 69 % 0.0 mm
16:26 15.0 °C 10.0 °C 1031.0 hPa NNW 4.7 km/h 10.1 km/h 70 % 0.0 mm
16:31 15.3 °C 10.0 °C 1031.0 hPa NNW 2.6 km/h 14.3 km/h 69 % 0.0 mm
16:36 15.7 °C 10.0 °C 1031.0 hPa WNW 5.5 km/h 14.3 km/h 70 % 0.0 mm
16:41 15.9 °C 10.0 °C 1031.0 hPa NNW 6.4 km/h 12.6 km/h 69 % 0.0 mm
16:51 15.9 °C 10.0 °C 1031.0 hPa NW 11.9 km/h 14.3 km/h 68 % 0.0 mm
16:56 15.8 °C 9.0 °C 1031.0 hPa North 5.0 km/h 14.3 km/h 66 % 0.0 mm
17:01 15.5 °C 10.0 °C 1031.0 hPa NNW 4.3 km/h 14.3 km/h 67 % 0.0 mm
17:06 15.3 °C 10.0 °C 1031.0 hPa North 9.7 km/h 11.1 km/h 69 % 0.0 mm
17:11 14.9 °C 10.0 °C 1031.0 hPa NNW 5.8 km/h 12.2 km/h 70 % 0.0 mm
17:16 14.7 °C 10.0 °C 1032.1 hPa NNW 2.1 km/h 12.2 km/h 71 % 0.0 mm
17:26 14.3 °C 10.0 °C 1032.1 hPa NNW 8.7 km/h 13.7 km/h 75 % 0.0 mm
17:31 14.1 °C 10.0 °C 1032.1 hPa NNE 4.7 km/h 16.3 km/h 76 % 0.0 mm
17:36 14.0 °C 10.0 °C 1032.1 hPa North 7.9 km/h 16.3 km/h 75 % 0.0 mm
17:41 13.8 °C 10.0 °C 1032.1 hPa NW 6.1 km/h 16.3 km/h 76 % 0.0 mm
17:46 13.7 °C 10.0 °C 1032.1 hPa NNW 4.3 km/h 12.6 km/h 78 % 0.0 mm
17:51 13.7 °C 10.0 °C 1032.1 hPa NW 4.3 km/h 12.6 km/h 78 % 0.0 mm
17:56 13.7 °C 10.0 °C 1032.1 hPa North 5.0 km/h 9.3 km/h 79 % 0.0 mm
18:01 13.6 °C 11.0 °C 1032.1 hPa North 9.3 km/h 9.3 km/h 80 % 0.0 mm
18:06 13.5 °C 11.0 °C 1032.1 hPa NNW 7.2 km/h 9.3 km/h 80 % 0.0 mm
18:11 13.4 °C 10.0 °C 1032.1 hPa NNE 4.0 km/h 10.1 km/h 81 % 0.0 mm
18:12 13.4 °C 10.0 °C 1032.1 hPa NNE 4.0 km/h 10.1 km/h 81 % 0.0 mm
18:18 13.3 °C 10.0 °C 1032.1 hPa Calm   10.1 km/h 81 % 0.0 mm
18:23 13.3 °C 11.0 °C 1032.1 hPa Calm   8.7 km/h 82 % 0.0 mm
18:28 13.2 °C 11.0 °C 1033.1 hPa Calm     83 % 0.0 mm
18:33 13.2 °C 11.0 °C 1033.1 hPa Calm     83 % 0.0 mm
18:38 13.1 °C 10.0 °C 1033.1 hPa Calm     83 % 0.0 mm
18:43 13.0 °C 10.0 °C 1033.1 hPa Calm     83 % 0.0 mm
18:48 12.9 °C 11.0 °C 1033.1 hPa Calm     84 % 0.0 mm
18:53 12.8 °C 11.0 °C 1033.1 hPa Calm     85 % 0.0 mm
18:58 12.5 °C 11.0 °C 1033.1 hPa Calm     87 % 0.0 mm
19:03 12.3 °C 11.0 °C 1033.1 hPa Calm     88 % 0.0 mm
19:08 12.1 °C 11.0 °C 1033.1 hPa Calm     89 % 0.0 mm
19:13 12.0 °C 11.0 °C 1034.1 hPa Calm     89 % 0.0 mm
19:18 11.9 °C 10.0 °C 1034.1 hPa Calm     90 % 0.3 mm
19:23 11.8 °C 10.0 °C 1034.1 hPa Calm     90 % 0.3 mm
19:28 11.8 °C 10.0 °C 1033.1 hPa Calm     90 % 0.3 mm
19:33 11.7 °C 10.0 °C 1033.1 hPa Calm     90 % 0.3 mm
19:38 11.7 °C 10.0 °C 1033.1 hPa Calm     91 % 0.3 mm
19:43 11.6 °C 10.0 °C 1033.1 hPa Calm     91 % 0.3 mm
19:48 11.4 °C 10.0 °C 1033.1 hPa Calm     91 % 0.3 mm
19:53 11.1 °C 10.0 °C 1033.1 hPa Calm     91 % 0.3 mm
19:58 10.9 °C 10.0 °C 1033.1 hPa Calm     91 % 0.3 mm
20:03 10.7 °C 9.0 °C 1033.1 hPa Calm     91 % 0.3 mm
20:08 10.5 °C 9.0 °C 1033.1 hPa Calm     91 % 0.3 mm
20:13 10.4 °C 9.0 °C 1033.1 hPa Calm     92 % 0.0 mm
20:18 10.3 °C 9.0 °C 1033.1 hPa Calm     92 % 0.0 mm
20:24 10.3 °C 9.0 °C 1033.1 hPa Calm     93 % 0.0 mm
20:29 10.3 °C 9.0 °C 1033.1 hPa Calm     93 % 0.0 mm
20:34 10.2 °C 9.0 °C 1033.1 hPa Calm     94 % 0.0 mm
20:39 10.1 °C 9.0 °C 1033.1 hPa Calm     94 % 0.0 mm
20:41 10.2 °C 9.0 °C 1033.1 hPa Calm     94 % 0.0 mm
20:46 10.1 °C 9.0 °C 1033.1 hPa Calm     94 % 0.0 mm
20:51 10.0 °C 9.0 °C 1033.1 hPa Calm     94 % 0.0 mm
20:56 10.1 °C 9.0 °C 1033.1 hPa Calm     95 % 0.0 mm
21:01 10.0 °C 9.0 °C 1033.1 hPa Calm     95 % 0.0 mm
21:06 9.7 °C 9.0 °C 1033.1 hPa Calm     95 % 0.0 mm
21:11 9.4 °C 9.0 °C 1033.1 hPa Calm     94 % 0.0 mm
21:16 9.4 °C 9.0 °C 1033.1 hPa Calm     94 % 0.0 mm
21:21 9.1 °C 8.0 °C 1033.1 hPa Calm     94 % 0.0 mm
21:26 9.0 °C 8.0 °C 1033.1 hPa Calm     94 % 0.0 mm
21:31 8.9 °C 9.0 °C 1033.1 hPa Calm     95 % 0.0 mm
21:36 8.6 °C 8.0 °C 1033.1 hPa Calm     95 % 0.0 mm
21:41 8.4 °C 8.0 °C 1033.1 hPa Calm     95 % 0.0 mm
21:46 8.3 °C 8.0 °C 1033.1 hPa Calm     95 % 0.0 mm
21:51 8.1 °C 8.0 °C 1033.1 hPa Calm     95 % 0.0 mm
21:56 8.0 °C 8.0 °C 1033.1 hPa Calm     95 % 0.0 mm
22:01 8.1 °C 8.0 °C 1033.1 hPa Calm     95 % 0.0 mm
22:06 8.0 °C 8.0 °C 1033.1 hPa Calm     96 % 0.0 mm
22:11 7.8 °C 7.0 °C 1033.1 hPa Calm     96 % 0.0 mm
22:16 7.7 °C 7.0 °C 1033.1 hPa Calm     96 % 0.0 mm
22:21 7.7 °C 7.0 °C 1033.1 hPa Calm     97 % 0.0 mm
22:26 7.9 °C 8.0 °C 1033.1 hPa Calm     97 % 0.0 mm
22:36 8.0 °C 8.0 °C 1033.1 hPa Calm     97 % 0.0 mm
22:41 8.0 °C 8.0 °C 1033.1 hPa Calm     97 % 0.0 mm
22:46 8.0 °C 8.0 °C 1033.1 hPa Calm     97 % 0.0 mm
22:51 7.9 °C 8.0 °C 1033.1 hPa Calm     98 % 0.0 mm
22:56 7.9 °C 8.0 °C 1034.1 hPa Calm     98 % 0.0 mm
23:06 7.7 °C 8.0 °C 1034.1 hPa Calm     98 % 0.0 mm
23:11 7.7 °C 8.0 °C 1033.1 hPa Calm     98 % 0.0 mm
23:16 7.6 °C 8.0 °C 1033.1 hPa Calm     98 % 0.0 mm
23:21 7.6 °C 8.0 °C 1033.1 hPa Calm     98 % 0.0 mm
23:26 7.6 °C 8.0 °C 1033.1 hPa Calm     98 % 0.0 mm
23:31 7.5 °C 8.0 °C 1033.1 hPa Calm     98 % 0.0 mm
23:36 7.3 °C 7.0 °C 1033.1 hPa Calm     98 % 0.0 mm
23:41 7.1 °C 7.0 °C 1033.1 hPa Calm     98 % 0.0 mm
23:46 6.9 °C 7.0 °C 1033.1 hPa Calm     98 % 0.0 mm
23:51 6.9 °C 7.0 °C 1033.1 hPa Calm     98 % 0.0 mm
23:57 6.8 °C 7.0 °C 1032.1 hPa Calm     98 % 0.0 mm
Le Gheer Warneton
Courtoisie de Weather Underground - 2.25 mb

Mise a jour : 18/12/2017 17:36:12
Généré par Cumulus 1.9.4 (1099)